Time;durP1;ratioP1;P1;durP2;ratioP2;P2;SDS_P1;SDS_P2;PMS_P1;PMS_P2;Temp;Humidity;BMP_temperature;BMP_pressure;BME280_temperature;BME280_humidity;BME280_pressure;Samples;Min_cycle;Max_cycle;Signal;HPM_P1;HPM_P2
2022/06/08 00:00:04;;;;;;;;;;;;;;;13.21;66.60;95127.19;6247754;28;19927;-67
2022/06/08 00:03:07;;;;;;;;;;;;;;;13.26;66.12;95121.47;6247509;28;19921;-67
2022/06/08 00:06:08;;;;;;;;;;;;;;;13.15;66.24;95119.09;6247509;28;19924;-67
2022/06/08 00:09:12;;;;;;;;;;;;;;;12.92;66.86;95118.81;6247267;28;19925;-68
2022/06/08 00:12:14;;;;;;;;;;;;;;;12.94;66.92;95133.50;6247417;28;19967;-67
2022/06/08 00:15:17;;;;;;;;;;;;;;;12.98;66.61;95113.72;6247676;28;19921;-68
2022/06/08 00:18:21;;;;;;;;;;;;;;;13.02;66.42;95112.44;6247432;28;20398;-67
2022/06/08 00:21:26;;;;;;;;;;;;;;;13.18;65.94;95129.34;6247313;28;19921;-68
2022/06/08 00:24:27;;;;;;;;;;;;;;;13.29;65.73;95131.72;6247131;28;19921;-68
2022/06/08 00:27:29;;;;;;;;;;;;;;;13.26;65.73;95124.13;6247216;28;19921;-68
2022/06/08 00:30:31;;;;;;;;;;;;;;;13.35;65.29;95133.72;6247120;28;19927;-67
2022/06/08 00:33:35;;;;;;;;;;;;;;;13.33;65.14;95138.34;6246920;28;19924;-67
2022/06/08 00:36:36;;;;;;;;;;;;;;;13.36;64.90;95127.47;6246647;28;19928;-68
2022/06/08 00:39:37;;;;;;;;;;;;;;;13.36;64.67;95138.03;6246772;28;19921;-68
2022/06/08 00:42:42;;;;;;;;;;;;;;;13.27;65.08;95128.41;6245734;28;19928;-69
2022/06/08 00:45:44;;;;;;;;;;;;;;;13.47;64.26;95143.03;6246583;28;19964;-69
2022/06/08 00:48:49;;;;;;;;;;;;;;;13.53;64.08;95143.38;6246441;28;19928;-68
2022/06/08 00:51:53;;;;;;;;;;;;;;;13.63;63.45;95128.22;6246845;28;19921;-68
2022/06/08 00:54:58;;;;;;;;;;;;;;;13.63;63.03;95139.59;6246747;28;19963;-68
2022/06/08 00:58:01;;;;;;;;;;;;;;;13.59;63.16;95148.84;6246621;28;19920;-68
2022/06/08 01:01:03;;;;;;;;;;;;;;;13.77;62.25;95130.22;6246376;28;19924;-68
2022/06/08 01:04:08;;;;;;;;;;;;;;;13.78;61.41;95142.44;6246457;28;19921;-68
2022/06/08 01:07:17;;;;;;;;;;;;;;;13.80;61.12;95160.81;6246266;28;20015;-68
2022/06/08 01:10:21;;;;;;;;;;;;;;;13.68;61.48;95149.72;6246046;28;19921;-68
2022/06/08 01:13:26;;;;;;;;;;;;;;;13.71;61.31;95162.59;6246095;28;20388;-67
2022/06/08 01:16:27;;;;;;;;;;;;;;;13.84;61.13;95149.75;6246440;28;19921;-69
2022/06/08 01:19:29;;;;;;;;;;;;;;;13.89;60.92;95152.72;6246272;28;20276;-68
2022/06/08 01:22:30;;;;;;;;;;;;;;;13.87;61.19;95144.16;6245684;28;19925;-66
2022/06/08 01:25:38;;;;;;;;;;;;;;;13.93;61.24;95156.72;6245966;28;19921;-68
2022/06/08 01:28:47;;;;;;;;;;;;;;;13.96;60.69;95165.31;6246205;28;19925;-67
2022/06/08 01:31:53;;;;;;;;;;;;;;;14.00;60.25;95148.94;6245865;28;19920;-67
2022/06/08 01:35:00;;;;;;;;;;;;;;;13.81;60.78;95152.69;6245936;28;20419;-67
2022/06/08 01:38:11;;;;;;;;;;;;;;;13.95;60.25;95153.88;6246114;28;19921;-68
2022/06/08 01:41:13;;;;;;;;;;;;;;;13.90;60.59;95149.09;6246089;28;20411;-68
2022/06/08 01:44:20;;;;;;;;;;;;;;;13.86;60.37;95145.13;6245782;28;20411;-67
2022/06/08 01:47:38;;;;;;;;;;;;;;;14.01;59.80;95163.00;6246289;28;19925;-68
2022/06/08 01:50:42;;;;;;;;;;;;;;;14.05;59.45;95174.91;6245884;28;19921;-67
2022/06/08 01:53:52;;;;;;;;;;;;;;;14.03;59.14;95176.88;6246007;28;19920;-68
2022/06/08 01:56:56;;;;;;;;;;;;;;;13.86;59.83;95171.56;6250398;28;19921;-67
2022/06/08 02:00:04;;;;;;;;;;;;;;;14.00;59.57;95179.84;6250446;28;19932;-67
2022/06/08 02:03:17;;;;;;;;;;;;;;;14.04;59.36;95189.97;6250499;28;20312;-68
2022/06/08 02:06:24;;;;;;;;;;;;;;;14.17;57.56;95194.78;6249224;28;19921;-68
2022/06/08 02:09:37;;;;;;;;;;;;;;;14.02;58.18;95186.66;6250479;28;20007;-67
2022/06/08 02:12:45;;;;;;;;;;;;;;;14.15;58.14;95191.44;6250310;28;19925;-67
2022/06/08 02:15:50;;;;;;;;;;;;;;;14.29;57.81;95182.88;6250762;28;19924;-67
2022/06/08 02:18:57;;;;;;;;;;;;;;;14.19;58.50;95171.63;6249850;28;19921;-67
2022/06/08 02:22:11;;;;;;;;;;;;;;;14.47;57.44;95184.56;6249754;28;19925;-67
2022/06/08 02:25:25;;;;;;;;;;;;;;;14.56;56.65;95179.13;6248365;28;19920;-68
2022/06/08 02:28:37;;;;;;;;;;;;;;;14.69;56.28;95183.94;6249807;28;19965;-67
2022/06/08 02:31:41;;;;;;;;;;;;;;;14.96;56.40;95184.56;6249786;28;19921;-67
2022/06/08 02:34:45;;;;;;;;;;;;;;;15.12;55.54;95176.59;6249607;28;19921;-67
2022/06/08 02:37:48;;;;;;;;;;;;;;;14.93;55.58;95180.44;6249917;28;19951;-67
2022/06/08 02:40:54;;;;;;;;;;;;;;;14.85;55.94;95182.25;6249431;28;20071;-67
2022/06/08 02:44:01;;;;;;;;;;;;;;;14.91;55.98;95190.34;6249473;28;19921;-68
2022/06/08 02:47:31;;;;;;;;;;;;;;;15.03;55.50;95185.53;6249441;28;19921;-66
2022/06/08 02:50:35;;;;;;;;;;;;;;;15.19;56.86;95185.50;6249476;28;20435;-67
2022/06/08 02:53:46;;;;;;;;;;;;;;;15.30;56.95;95186.16;6249137;28;19925;-68
2022/06/08 02:57:06;;;;;;;;;;;;;;;15.43;56.26;95186.47;6249347;28;19925;-68
2022/06/08 03:00:10;;;;;;;;;;;;;;;15.54;55.65;95194.03;6249724;28;20022;-68
2022/06/08 03:03:16;;;;;;;;;;;;;;;15.48;55.22;95200.00;6248327;28;20407;-67
2022/06/08 03:06:20;;;;;;;;;;;;;;;15.29;55.69;95195.94;6247012;28;19928;-68
2022/06/08 03:09:21;;;;;;;;;;;;;;;15.53;55.08;95192.38;6248835;28;19928;-67
2022/06/08 03:12:30;;;;;;;;;;;;;;;15.40;54.67;95197.38;6248950;28;19967;-67
2022/06/08 03:15:32;;;;;;;;;;;;;;;15.11;54.75;95198.78;6248769;28;19924;-67
2022/06/08 03:18:34;;;;;;;;;;;;;;;14.89;54.89;95204.75;6248634;28;19921;-68
2022/06/08 03:21:35;;;;;;;;;;;;;;;14.67;55.56;95207.09;6248936;28;20327;-67
2022/06/08 03:24:39;;;;;;;;;;;;;;;14.67;54.52;95203.63;6248315;28;19921;-67
2022/06/08 03:27:42;;;;;;;;;;;;;;;14.64;53.81;95207.44;6247507;28;19956;-67
2022/06/08 03:30:45;;;;;;;;;;;;;;;14.56;53.65;95207.41;6248299;28;20349;-68
2022/06/08 03:33:48;;;;;;;;;;;;;;;14.60;53.77;95200.78;6248555;28;19959;-67
2022/06/08 03:36:54;;;;;;;;;;;;;;;14.84;52.94;95201.81;6248159;28;19921;-67
2022/06/08 03:39:57;;;;;;;;;;;;;;;15.01;52.44;95208.72;6248304;28;19927;-67
2022/06/08 03:42:58;;;;;;;;;;;;;;;15.10;52.49;95207.72;6247955;28;19972;-67
2022/06/08 03:46:02;;;;;;;;;;;;;;;15.48;51.55;95222.06;6248070;28;20320;-67
2022/06/08 03:49:08;;;;;;;;;;;;;;;15.79;50.43;95225.78;6248254;28;19921;-67
2022/06/08 03:52:15;;;;;;;;;;;;;;;15.86;50.15;95224.09;6247597;28;19925;-67
2022/06/08 03:55:19;;;;;;;;;;;;;;;15.81;50.02;95221.13;6247555;28;19921;-67
2022/06/08 03:58:25;;;;;;;;;;;;;;;15.74;50.48;95236.06;6247409;28;19921;-67
2022/06/08 04:01:31;;;;;;;;;;;;;;;15.95;49.82;95233.69;6247096;28;19928;-68
2022/06/08 04:04:33;;;;;;;;;;;;;;;16.11;49.56;95260.13;6247348;28;19920;-67
2022/06/08 04:07:36;;;;;;;;;;;;;;;16.26;49.25;95240.81;6247219;28;19917;-68
2022/06/08 04:10:40;;;;;;;;;;;;;;;16.28;49.36;95239.66;6247554;28;19927;-67
2022/06/08 04:13:44;;;;;;;;;;;;;;;16.21;49.48;95243.16;6246859;28;19976;-67
2022/06/08 04:16:50;;;;;;;;;;;;;;;15.98;50.00;95254.56;6247071;28;19920;-68
2022/06/08 04:19:53;;;;;;;;;;;;;;;15.84;50.60;95279.13;6247541;28;19971;-67
2022/06/08 04:22:57;;;;;;;;;;;;;;;15.74;50.54;95271.41;6247085;28;19925;-67
2022/06/08 04:25:58;;;;;;;;;;;;;;;15.39;51.85;95248.72;6246987;28;19928;-67
2022/06/08 04:28:59;;;;;;;;;;;;;;;15.38;52.46;95244.44;6247061;28;19917;-68
2022/06/08 04:32:00;;;;;;;;;;;;;;;15.31;53.15;95259.34;6246869;28;19925;-68
2022/06/08 04:35:03;;;;;;;;;;;;;;;15.30;52.53;95258.53;6246764;28;20023;-67
2022/06/08 04:38:06;;;;;;;;;;;;;;;15.22;52.95;95258.53;6246696;28;20000;-68
2022/06/08 04:41:10;;;;;;;;;;;;;;;15.31;52.93;95254.03;6246761;28;20019;-68
2022/06/08 04:44:11;;;;;;;;;;;;;;;15.39;52.37;95261.97;6246882;28;20410;-69
2022/06/08 04:47:15;;;;;;;;;;;;;;;15.31;52.80;95251.41;6246248;28;19921;-69
2022/06/08 04:50:18;;;;;;;;;;;;;;;15.45;52.89;95261.31;6246320;28;19921;-69
2022/06/08 04:53:20;;;;;;;;;;;;;;;15.75;52.13;95262.44;6246155;28;19920;-69
2022/06/08 04:56:27;;;;;;;;;;;;;;;15.80;51.24;95272.53;6246262;28;19924;-68
2022/06/08 04:59:28;;;;;;;;;;;;;;;15.40;52.45;95288.34;6245872;28;19927;-68
2022/06/08 05:02:44;;;;;;;;;;;;;;;15.18;53.11;95281.06;6246045;28;19972;-68
2022/06/08 05:05:46;;;;;;;;;;;;;;;15.09;53.15;95263.50;6244908;28;19920;-69
2022/06/08 05:08:49;;;;;;;;;;;;;;;15.05;52.68;95271.78;6246086;28;19979;-68
2022/06/08 05:11:55;;;;;;;;;;;;;;;15.06;52.80;95280.59;6246061;28;19956;-68
2022/06/08 05:15:06;;;;;;;;;;;;;;;15.04;52.30;95271.97;6245993;28;19920;-68
2022/06/08 05:18:07;;;;;;;;;;;;;;;15.05;51.97;95273.63;6246241;28;19921;-69
2022/06/08 05:21:13;;;;;;;;;;;;;;;15.14;51.71;95277.91;6246174;28;20281;-68
2022/06/08 05:24:19;;;;;;;;;;;;;;;15.03;51.69;95299.44;6245871;28;19921;-67
2022/06/08 05:27:23;;;;;;;;;;;;;;;15.06;51.73;95307.06;6245679;28;19921;-68
2022/06/08 05:30:29;;;;;;;;;;;;;;;14.90;52.66;95275.28;6245331;28;20400;-68
2022/06/08 05:33:32;;;;;;;;;;;;;;;15.10;52.36;95273.94;6246004;28;19929;-67
2022/06/08 05:36:33;;;;;;;;;;;;;;;15.38;50.97;95300.91;6245608;28;19924;-67
2022/06/08 05:39:35;;;;;;;;;;;;;;;15.60;49.98;95299.41;6245600;28;19928;-68
2022/06/08 05:42:39;;;;;;;;;;;;;;;15.33;50.31;95313.00;6245657;28;20296;-68
2022/06/08 05:45:40;;;;;;;;;;;;;;;15.06;51.73;95285.88;6245556;28;19921;-68
2022/06/08 05:48:43;;;;;;;;;;;;;;;16.15;49.43;95293.28;6245534;28;20016;-68
2022/06/08 05:51:46;;;;;;;;;;;;;;;16.55;47.96;95294.06;6245347;28;20312;-68
2022/06/08 05:54:49;;;;;;;;;;;;;;;16.52;48.17;95299.72;6245492;28;19917;-68
2022/06/08 05:57:56;;;;;;;;;;;;;;;16.57;46.91;95296.56;6245422;28;20312;-68
2022/06/08 06:00:57;;;;;;;;;;;;;;;16.87;46.52;95302.88;6245422;28;19932;-68
2022/06/08 06:04:00;;;;;;;;;;;;;;;17.17;45.02;95292.34;6245423;28;19928;-68
2022/06/08 06:07:02;;;;;;;;;;;;;;;16.72;45.42;95309.91;6245485;28;19921;-68
2022/06/08 06:10:03;;;;;;;;;;;;;;;16.52;46.31;95286.44;6243745;28;19921;-68
2022/06/08 06:13:07;;;;;;;;;;;;;;;16.24;47.29;95302.03;6245377;28;19921;-68
2022/06/08 06:16:09;;;;;;;;;;;;;;;16.28;46.71;95294.56;6245074;28;19928;-68
2022/06/08 06:19:13;;;;;;;;;;;;;;;16.24;46.17;95290.59;6245061;28;20428;-68
2022/06/08 06:22:19;;;;;;;;;;;;;;;16.01;46.46;95303.78;6245261;28;20008;-67
2022/06/08 06:25:23;;;;;;;;;;;;;;;15.77;46.76;95321.44;6245036;28;19927;-68
2022/06/08 06:28:24;;;;;;;;;;;;;;;16.01;47.03;95312.56;6245245;28;19921;-69
2022/06/08 06:31:49;;;;;;;;;;;;;;;17.38;44.08;95300.47;6245220;28;19920;-67
2022/06/08 06:34:55;;;;;;;;;;;;;;;17.53;42.63;95312.97;6245040;28;20354;-68
2022/06/08 06:37:59;;;;;;;;;;;;;;;16.90;44.20;95302.53;6243817;28;19921;-68
2022/06/08 06:41:00;;;;;;;;;;;;;;;16.71;44.23;95324.19;6245454;28;20400;-68
2022/06/08 06:44:05;;;;;;;;;;;;;;;16.30;44.98;95316.44;6249709;28;19921;-67
2022/06/08 06:47:08;;;;;;;;;;;;;;;15.79;46.09;95313.28;6249419;28;19920;-67
2022/06/08 06:50:11;;;;;;;;;;;;;;;15.65;46.75;95323.59;6249127;28;19927;-68
2022/06/08 06:53:13;;;;;;;;;;;;;;;15.61;46.54;95311.66;6248935;28;19928;-68
2022/06/08 06:56:14;;;;;;;;;;;;;;;15.23;47.51;95303.41;6248846;28;20023;-67
2022/06/08 06:59:17;;;;;;;;;;;;;;;15.08;48.47;95315.66;6248908;28;19921;-68
2022/06/08 07:02:21;;;;;;;;;;;;;;;15.37;48.17;95315.19;6248489;28;19921;-68
2022/06/08 07:05:24;;;;;;;;;;;;;;;15.23;48.22;95318.50;6248850;28;19964;-68
2022/06/08 07:08:28;;;;;;;;;;;;;;;15.25;48.28;95333.22;6248774;28;19927;-67
2022/06/08 07:11:37;;;;;;;;;;;;;;;15.17;47.66;95330.59;6248398;28;20295;-67
2022/06/08 07:14:39;;;;;;;;;;;;;;;15.04;48.77;95335.53;6248348;28;19921;-68
2022/06/08 07:17:42;;;;;;;;;;;;;;;16.02;46.95;95338.13;6248682;28;20011;-68
2022/06/08 07:20:50;;;;;;;;;;;;;;;19.40;40.95;95327.63;6248155;28;19921;-68
2022/06/08 07:23:52;;;;;;;;;;;;;;;22.78;32.77;95343.69;6247539;28;20384;-68
2022/06/08 07:26:53;;;;;;;;;;;;;;;24.86;29.76;95320.34;6247657;28;19928;-68
2022/06/08 07:29:56;;;;;;;;;;;;;;;27.35;27.13;95333.72;6247900;28;19921;-68
2022/06/08 07:33:00;;;;;;;;;;;;;;;29.10;23.83;95327.97;6248510;28;19928;-67
2022/06/08 07:36:03;;;;;;;;;;;;;;;28.56;23.76;95300.75;6247910;28;19920;-68
2022/06/08 07:39:07;;;;;;;;;;;;;;;26.93;24.82;95320.47;6247411;28;20070;-68
2022/06/08 07:42:08;;;;;;;;;;;;;;;24.39;27.92;95323.53;6247655;28;19927;-67
2022/06/08 07:45:10;;;;;;;;;;;;;;;22.49;31.00;95301.34;6248010;28;20376;-68
2022/06/08 07:51:34;;;;;;;;;;;;;;;21.46;32.67;95317.97;6246967;28;19921;-68
2022/06/08 07:54:38;;;;;;;;;;;;;;;21.72;32.29;95327.84;6247377;28;19921;-68
2022/06/08 07:57:39;;;;;;;;;;;;;;;20.90;33.27;95324.44;6247288;28;19925;-68
2022/06/08 08:00:46;;;;;;;;;;;;;;;20.58;33.35;95294.72;6247337;28;20019;-68
2022/06/08 08:03:50;;;;;;;;;;;;;;;19.72;34.57;95305.72;6247790;28;19928;-67
2022/06/08 08:06:51;;;;;;;;;;;;;;;18.89;36.25;95322.41;6247494;28;20014;-69
2022/06/08 08:09:52;;;;;;;;;;;;;;;18.23;37.88;95325.06;6246373;28;19943;-68
2022/06/08 08:12:59;;;;;;;;;;;;;;;17.62;39.12;95306.56;6247278;28;19931;-68
2022/06/08 08:16:00;;;;;;;;;;;;;;;17.12;40.40;95337.22;6247313;28;20475;-68
2022/06/08 08:19:06;;;;;;;;;;;;;;;16.75;41.09;95326.31;6247069;28;19921;-68
2022/06/08 08:22:07;;;;;;;;;;;;;;;17.10;40.70;95318.81;6246918;28;19921;-68
2022/06/08 08:25:11;;;;;;;;;;;;;;;17.23;40.67;95337.63;6247081;28;19928;-68
2022/06/08 08:28:15;;;;;;;;;;;;;;;17.11;41.09;95335.59;6246761;28;19921;-68
2022/06/08 08:31:16;;;;;;;;;;;;;;;16.72;42.10;95331.97;6246635;28;19921;-68
2022/06/08 08:34:17;;;;;;;;;;;;;;;16.59;42.88;95337.06;6246510;28;19920;-68
2022/06/08 08:37:21;;;;;;;;;;;;;;;16.61;43.46;95351.78;6246544;28;19925;-69
2022/06/08 08:40:57;;;;;;;;;;;;;;;16.45;44.25;95359.84;6246531;28;19921;-67
2022/06/08 08:44:00;;;;;;;;;;;;;;;16.39;44.62;95353.41;6245275;28;20427;-69
2022/06/08 08:47:26;;;;;;;;;;;;;;;16.53;44.45;95365.13;6245154;28;19921;-67
2022/06/08 08:50:48;;;;;;;;;;;;;;;16.64;43.76;95355.09;6246376;28;19944;-69
2022/06/08 08:53:54;;;;;;;;;;;;;;;16.75;42.45;95374.13;6246345;28;20023;-69
2022/06/08 08:57:14;;;;;;;;;;;;;;;16.76;42.18;95348.41;6246546;28;19987;-68
2022/06/08 09:00:18;;;;;;;;;;;;;;;16.67;42.51;95373.34;6246300;28;19975;-68
2022/06/08 09:03:25;;;;;;;;;;;;;;;16.31;43.34;95369.34;6245722;28;20285;-69
2022/06/08 09:06:28;;;;;;;;;;;;;;;15.87;44.62;95363.66;6245937;28;20006;-68
2022/06/08 09:09:31;;;;;;;;;;;;;;;15.79;45.95;95355.72;6244965;28;20485;-68
2022/06/08 09:12:37;;;;;;;;;;;;;;;15.40;47.40;95372.28;6246107;28;19921;-69
2022/06/08 09:15:54;;;;;;;;;;;;;;;15.28;47.54;95371.81;6246007;28;19921;-68
2022/06/08 09:18:56;;;;;;;;;;;;;;;14.86;48.02;95374.56;6245823;28;19927;-69
2022/06/08 09:22:08;;;;;;;;;;;;;;;15.04;47.73;95384.03;6244530;28;20308;-69
2022/06/08 09:25:29;;;;;;;;;;;;;;;15.10;47.13;95392.34;6245615;28;19921;-68
2022/06/08 09:28:33;;;;;;;;;;;;;;;15.53;46.50;95393.84;6246023;28;20372;-68
2022/06/08 09:31:35;;;;;;;;;;;;;;;15.94;45.72;95380.59;6245715;28;19921;-67
2022/06/08 09:34:53;;;;;;;;;;;;;;;16.09;45.06;95416.03;6245719;28;19921;-67
2022/06/08 09:38:02;;;;;;;;;;;;;;;16.11;44.64;95382.19;6245839;28;19929;-67
2022/06/08 09:41:03;;;;;;;;;;;;;;;16.24;44.61;95417.97;6245454;28;19921;-67
2022/06/08 09:44:18;;;;;;;;;;;;;;;16.15;44.51;95436.56;6245456;28;19921;-68
2022/06/08 09:54:48;;;;;;;;;;;;;;;14.95;47.56;95410.69;6245762;28;19921;-68
2022/06/08 09:58:00;;;;;;;;;;;;;;;14.88;47.71;95413.13;6245784;28;20388;-68
2022/06/08 10:01:11;;;;;;;;;;;;;;;14.67;48.47;95418.88;6244020;28;19921;-68
2022/06/08 10:04:24;;;;;;;;;;;;;;;15.05;47.17;95416.66;6245533;28;19927;-67
2022/06/08 10:07:35;;;;;;;;;;;;;;;14.92;47.72;95417.13;6245488;28;19921;-68
2022/06/08 10:10:36;;;;;;;;;;;;;;;14.61;48.57;95419.53;6245636;28;20334;-67
2022/06/08 10:13:43;;;;;;;;;;;;;;;14.43;49.41;95419.56;6245380;28;19928;-68
2022/06/08 10:16:54;;;;;;;;;;;;;;;14.45;50.13;95424.72;6248638;28;19921;-68
2022/06/08 10:20:12;;;;;;;;;;;;;;;14.58;49.79;95420.66;6250369;28;19920;-67
2022/06/08 10:23:19;;;;;;;;;;;;;;;14.54;49.65;95429.91;6249608;28;20303;-68
2022/06/08 10:26:43;;;;;;;;;;;;;;;14.30;50.30;95429.78;6249881;28;19920;-67
2022/06/08 10:30:01;;;;;;;;;;;;;;;14.31;50.51;95456.06;6248877;28;20050;-68
2022/06/08 10:33:12;;;;;;;;;;;;;;;14.42;50.23;95435.63;6249464;28;19921;-68
2022/06/08 10:36:13;;;;;;;;;;;;;;;14.53;50.05;95430.06;6249301;28;20281;-69
2022/06/08 10:39:18;;;;;;;;;;;;;;;14.80;48.87;95435.16;6249588;28;19920;-69
2022/06/08 10:42:40;;;;;;;;;;;;;;;14.79;49.06;95432.66;6249158;28;20002;-68
2022/06/08 10:45:47;;;;;;;;;;;;;;;14.82;49.22;95427.03;6249155;28;19924;-68
2022/06/08 10:48:51;;;;;;;;;;;;;;;15.09;48.46;95433.91;6249456;28;19920;-68
2022/06/08 10:52:13;;;;;;;;;;;;;;;14.76;49.18;95433.78;6249198;28;20320;-68
2022/06/08 10:55:20;;;;;;;;;;;;;;;14.48;50.13;95464.09;6249214;28;19921;-67
2022/06/08 10:58:26;;;;;;;;;;;;;;;14.46;50.31;95448.34;6249360;28;19921;-67
2022/06/08 11:01:35;;;;;;;;;;;;;;;14.41;50.81;95455.13;6248953;28;19920;-68
2022/06/08 11:04:56;;;;;;;;;;;;;;;14.32;51.08;95456.88;6248624;28;19921;-67
2022/06/08 11:08:06;;;;;;;;;;;;;;;14.32;51.45;95457.75;6248748;28;19932;-69
2022/06/08 11:11:10;;;;;;;;;;;;;;;14.24;51.98;95460.34;6248703;28;20353;-69
2022/06/08 11:14:29;;;;;;;;;;;;;;;14.38;51.72;95451.81;6248611;28;19929;-68
2022/06/08 11:17:34;;;;;;;;;;;;;;;14.22;52.17;95451.72;6248556;28;20023;-68
2022/06/08 11:20:38;;;;;;;;;;;;;;;14.25;52.12;95464.63;6248307;28;19928;-68
2022/06/08 11:23:42;;;;;;;;;;;;;;;14.06;52.57;95467.47;6247049;28;19920;-68
2022/06/08 11:27:02;;;;;;;;;;;;;;;13.93;53.29;95446.75;6247656;28;19921;-68
2022/06/08 11:30:26;;;;;;;;;;;;;;;13.83;53.74;95457.41;6248257;28;19921;-68
2022/06/08 11:33:48;;;;;;;;;;;;;;;14.02;53.76;95445.00;6247052;28;19921;-68
2022/06/08 11:36:53;;;;;;;;;;;;;;;14.54;52.66;95439.66;6247956;28;19921;-68
2022/06/08 11:40:00;;;;;;;;;;;;;;;14.90;51.92;95455.38;6248038;28;19925;-68
2022/06/08 11:43:15;;;;;;;;;;;;;;;15.05;51.36;95443.97;6247810;28;19943;-69
2022/06/08 11:46:30;;;;;;;;;;;;;;;15.10;50.71;95451.44;6247695;28;20448;-68
2022/06/08 11:49:37;;;;;;;;;;;;;;;14.79;51.61;95436.13;6247801;28;19921;-67
2022/06/08 11:52:42;;;;;;;;;;;;;;;14.82;51.51;95438.44;6247725;28;19921;-68
2022/06/08 11:56:08;;;;;;;;;;;;;;;14.50;52.30;95433.00;6247801;28;19921;-68
2022/06/08 11:59:17;;;;;;;;;;;;;;;14.42;52.87;95440.91;6247932;28;19927;-68
2022/06/08 12:02:22;;;;;;;;;;;;;;;14.43;53.10;95442.56;6247407;28;19928;-68
2022/06/08 12:05:28;;;;;;;;;;;;;;;14.58;52.71;95443.66;6247415;28;19921;-68
2022/06/08 12:08:39;;;;;;;;;;;;;;;14.48;52.59;95435.81;6247260;28;20384;-68
2022/06/08 12:11:43;;;;;;;;;;;;;;;14.07;53.30;95437.44;6247323;28;19936;-68
2022/06/08 12:14:45;;;;;;;;;;;;;;;14.14;53.76;95454.31;6247317;28;20361;-68
2022/06/08 12:17:49;;;;;;;;;;;;;;;14.36;53.38;95453.78;6247719;28;19921;-67
2022/06/08 12:21:05;;;;;;;;;;;;;;;14.30;53.76;95454.41;6247349;28;20015;-69
2022/06/08 12:24:20;;;;;;;;;;;;;;;14.23;54.02;95460.47;6246756;28;20407;-68
2022/06/08 12:27:23;;;;;;;;;;;;;;;13.91;54.82;95454.81;6247156;28;19921;-68
2022/06/08 12:30:26;;;;;;;;;;;;;;;14.09;54.45;95446.00;6245593;28;20422;-69
2022/06/08 12:33:29;;;;;;;;;;;;;;;14.06;54.73;95456.91;6246513;28;19925;-69
2022/06/08 12:36:35;;;;;;;;;;;;;;;13.83;54.96;95446.84;6246666;28;19921;-68
2022/06/08 12:39:41;;;;;;;;;;;;;;;13.94;55.14;95445.75;6246689;28;19917;-68
2022/06/08 12:42:46;;;;;;;;;;;;;;;13.81;55.31;95448.78;6246619;28;19968;-68
2022/06/08 12:46:19;;;;;;;;;;;;;;;13.84;55.52;95448.50;6244976;28;20019;-68
2022/06/08 12:49:20;;;;;;;;;;;;;;;14.43;54.08;95447.84;6245433;28;20356;-67
2022/06/08 12:52:23;;;;;;;;;;;;;;;14.48;53.61;95441.09;6246703;28;19921;-67
2022/06/08 12:55:27;;;;;;;;;;;;;;;14.57;53.55;95423.47;6246449;28;19920;-68
2022/06/08 12:58:31;;;;;;;;;;;;;;;14.52;53.92;95436.34;6246500;28;19921;-68
2022/06/08 13:01:32;;;;;;;;;;;;;;;14.69;53.68;95426.66;6244927;28;20300;-67
2022/06/08 13:04:36;;;;;;;;;;;;;;;14.93;52.56;95423.25;6246577;28;19998;-68
2022/06/08 13:07:40;;;;;;;;;;;;;;;14.72;53.03;95431.63;6246278;28;19921;-69
2022/06/08 13:10:44;;;;;;;;;;;;;;;14.56;53.25;95427.13;6246044;28;19921;-69
2022/06/08 13:13:46;;;;;;;;;;;;;;;14.72;52.96;95427.19;6246240;28;19921;-69
2022/06/08 13:16:47;;;;;;;;;;;;;;;14.62;53.49;95431.75;6246112;28;19928;-68
2022/06/08 13:19:48;;;;;;;;;;;;;;;14.72;53.41;95432.47;6246112;28;20432;-69
2022/06/08 13:22:49;;;;;;;;;;;;;;;14.77;53.21;95430.16;6245347;28;19920;-68
2022/06/08 13:25:52;;;;;;;;;;;;;;;14.66;53.57;95437.56;6245710;28;19931;-68
2022/06/08 13:28:53;;;;;;;;;;;;;;;14.57;53.78;95434.06;6246167;28;19924;-70
2022/06/08 13:31:57;;;;;;;;;;;;;;;14.40;54.14;95421.72;6245708;28;19928;-68
2022/06/08 13:35:02;;;;;;;;;;;;;;;14.24;54.35;95433.88;6245769;28;19921;-68
2022/06/08 13:38:04;;;;;;;;;;;;;;;14.49;53.55;95424.25;6244463;28;19921;-68
2022/06/08 13:41:05;;;;;;;;;;;;;;;14.38;53.78;95432.47;6245849;28;19920;-67
2022/06/08 13:44:15;;;;;;;;;;;;;;;14.10;54.64;95430.00;6245849;28;19928;-68
2022/06/08 13:47:23;;;;;;;;;;;;;;;14.15;54.67;95445.38;6245831;28;19921;-68
2022/06/08 13:50:33;;;;;;;;;;;;;;;14.12;54.93;95430.66;6247203;28;20388;-69
2022/06/08 13:53:37;;;;;;;;;;;;;;;14.39;54.36;95434.13;6250174;28;20405;-69
2022/06/08 13:56:40;;;;;;;;;;;;;;;14.21;54.91;95438.63;6250476;28;19921;-68
2022/06/08 13:59:43;;;;;;;;;;;;;;;14.09;55.39;95440.72;6250352;28;19921;-68
2022/06/08 14:02:44;;;;;;;;;;;;;;;14.20;55.04;95443.09;6250089;28;19928;-68
2022/06/08 14:15:58;;;;;;;;;;;;;;;14.36;54.46;95422.03;6249800;28;19921;-68
2022/06/08 14:19:07;;;;;;;;;;;;;;;14.26;54.57;95429.25;6250099;28;19998;-68
2022/06/08 14:22:11;;;;;;;;;;;;;;;14.22;55.12;95421.78;6250014;28;19921;-68
2022/06/08 14:25:15;;;;;;;;;;;;;;;14.41;54.79;95428.66;6249889;28;19925;-68
2022/06/08 14:28:19;;;;;;;;;;;;;;;14.22;55.27;95422.63;6249973;28;20007;-68
2022/06/08 14:31:25;;;;;;;;;;;;;;;14.34;55.08;95445.16;6249459;28;19921;-69
2022/06/08 14:34:29;;;;;;;;;;;;;;;14.33;55.12;95432.94;6249495;28;19928;-69
2022/06/08 14:37:33;;;;;;;;;;;;;;;14.42;54.53;95441.72;6249368;28;19921;-68
2022/06/08 14:40:37;;;;;;;;;;;;;;;14.32;54.96;95452.44;6248088;28;19928;-70
2022/06/08 14:43:42;;;;;;;;;;;;;;;14.06;55.63;95430.47;6248886;28;19921;-68
2022/06/08 14:46:47;;;;;;;;;;;;;;;14.14;55.42;95444.56;6249310;28;19920;-69
2022/06/08 14:49:54;;;;;;;;;;;;;;;13.90;56.10;95437.31;6249261;28;19917;-68
2022/06/08 14:52:58;;;;;;;;;;;;;;;13.96;56.10;95440.31;6248966;28;19931;-68
2022/06/08 14:56:26;;;;;;;;;;;;;;;14.04;55.82;95443.00;6248967;28;19968;-68
2022/06/08 14:59:28;;;;;;;;;;;;;;;13.92;56.00;95445.06;6249044;28;19917;-68
2022/06/08 15:02:32;;;;;;;;;;;;;;;13.89;55.92;95438.28;6247836;28;20435;-68
2022/06/08 15:05:35;;;;;;;;;;;;;;;13.96;55.82;95435.03;6249005;28;19921;-68
2022/06/08 15:08:38;;;;;;;;;;;;;;;13.92;55.79;95431.84;6248798;28;19925;-68
2022/06/08 15:11:58;;;;;;;;;;;;;;;13.70;56.35;95439.31;6248739;28;19928;-68
2022/06/08 15:15:18;;;;;;;;;;;;;;;13.67;56.56;95437.00;6248810;28;19921;-68
2022/06/08 15:18:21;;;;;;;;;;;;;;;13.75;56.83;95444.13;6248775;28;20320;-69
2022/06/08 15:21:25;;;;;;;;;;;;;;;13.86;56.67;95441.22;6248245;28;20014;-69
2022/06/08 15:24:31;;;;;;;;;;;;;;;13.65;57.31;95444.22;6248375;28;19920;-68
2022/06/08 15:27:34;;;;;;;;;;;;;;;13.73;57.42;95446.13;6248298;28;19979;-68
2022/06/08 15:30:37;;;;;;;;;;;;;;;13.54;57.79;95451.56;6248105;28;20304;-68
2022/06/08 15:33:40;;;;;;;;;;;;;;;13.54;58.35;95441.81;6248415;28;19925;-68
2022/06/08 15:36:41;;;;;;;;;;;;;;;13.58;58.50;95437.88;6248071;28;19921;-68
2022/06/08 15:39:42;;;;;;;;;;;;;;;13.62;58.27;95457.75;6248267;28;19925;-68
2022/06/08 15:42:44;;;;;;;;;;;;;;;13.76;57.60;95456.38;6248139;28;19943;-69
2022/06/08 15:45:50;;;;;;;;;;;;;;;13.53;57.94;95455.19;6247856;28;20367;-68
2022/06/08 15:48:57;;;;;;;;;;;;;;;13.72;57.29;95455.00;6247739;28;19921;-68
2022/06/08 15:52:01;;;;;;;;;;;;;;;13.66;57.23;95458.28;6247788;28;19987;-68
2022/06/08 15:55:06;;;;;;;;;;;;;;;13.64;56.91;95452.31;6247684;28;20388;-67
2022/06/08 15:58:14;;;;;;;;;;;;;;;13.72;56.02;95470.88;6247694;28;19921;-69
2022/06/08 16:01:18;;;;;;;;;;;;;;;13.73;55.88;95445.25;6247783;28;19920;-69
2022/06/08 16:04:23;;;;;;;;;;;;;;;13.68;55.96;95448.38;6247262;28;19925;-69
2022/06/08 16:07:27;;;;;;;;;;;;;;;13.60;56.27;95450.97;6247421;28;19921;-68
2022/06/08 16:10:28;;;;;;;;;;;;;;;13.40;56.94;95450.28;6247556;28;19932;-69
2022/06/08 16:13:34;;;;;;;;;;;;;;;13.47;56.66;95461.91;6246080;28;19995;-67
2022/06/08 16:16:36;;;;;;;;;;;;;;;13.35;57.08;95453.38;6247412;28;20376;-67
2022/06/08 16:19:42;;;;;;;;;;;;;;;13.27;57.56;95461.22;6246938;28;19921;-68
2022/06/08 16:22:46;;;;;;;;;;;;;;;13.30;57.41;95455.63;6247093;28;20334;-69
2022/06/08 16:25:49;;;;;;;;;;;;;;;13.51;56.76;95452.72;6247247;28;19921;-68
2022/06/08 16:28:55;;;;;;;;;;;;;;;13.24;57.71;95456.22;6247297;28;19942;-68